Time;durP1;ratioP1;P1;durP2;ratioP2;P2;SDS_P1;SDS_P2;PMS_P1;PMS_P2;Temp;Humidity;BMP_temperature;BMP_pressure;BME280_temperature;BME280_humidity;BME280_pressure;Samples;Min_cycle;Max_cycle;Signal;HPM_P1;HPM_P2
2021/03/15 00:00:46;;;;;;;1.00;0.90;;;;;;;;;;5093749;28;20376;-81
2021/03/15 00:03:13;;;;;;;0.70;0.53;;;;;;;;;;5074868;28;20406;-82
2021/03/15 00:05:38;;;;;;;0.90;0.70;;;;;;;;;;5075894;28;20411;-81
2021/03/15 00:08:05;;;;;;;0.80;0.60;;;;;;;;;;5075457;28;20451;-81
2021/03/15 00:10:33;;;;;;;1.23;1.13;;;;;;;;;;5091450;28;20369;-81
2021/03/15 00:12:59;;;;;;;0.90;0.50;;;;;;;;;;5090845;28;20401;-81
2021/03/15 00:15:25;;;;;;;0.70;0.40;;;;;;;;;;5073406;28;20402;-81
2021/03/15 00:17:52;;;;;;;0.87;0.87;;;;;;;;;;5073120;28;20741;-81
2021/03/15 00:20:19;;;;;;;0.70;0.50;;;;;;;;;;5089974;28;20470;-82
2021/03/15 00:22:45;;;;;;;0.70;0.50;;;;;;;;;;5090717;28;20401;-81
2021/03/15 00:25:12;;;;;;;0.80;0.67;;;;;;;;;;5089376;28;20456;-81
2021/03/15 00:27:39;;;;;;;0.70;0.50;;;;;;;;;;5090225;28;20369;-81
2021/03/15 00:30:06;;;;;;;1.80;0.60;;;;;;;;;;5070485;28;20393;-80
2021/03/15 00:32:32;;;;;;;1.27;0.80;;;;;;;;;;5087453;28;20417;-80
2021/03/15 00:34:58;;;;;;;0.70;0.60;;;;;;;;;;5070692;28;20412;-80
2021/03/15 00:37:24;;;;;;;0.70;0.50;;;;;;;;;;5088437;28;20408;-80
2021/03/15 00:39:50;;;;;;;1.30;0.80;;;;;;;;;;5071066;28;20379;-80
2021/03/15 00:42:16;;;;;;;0.70;0.50;;;;;;;;;;5088678;28;20864;-80
2021/03/15 00:44:42;;;;;;;1.20;0.60;;;;;;;;;;5070739;28;20438;-80
2021/03/15 00:47:08;;;;;;;11.50;2.10;;;;;;;;;;5088530;28;20466;-80
2021/03/15 00:49:34;;;;;;;0.80;0.40;;;;;;;;;;5086988;28;20446;-80
2021/03/15 00:52:00;;;;;;;2.17;1.20;;;;;;;;;;5070284;28;20379;-79
2021/03/15 00:54:26;;;;;;;0.70;0.50;;;;;;;;;;5088061;28;21101;-79
2021/03/15 00:56:52;;;;;;;0.70;0.50;;;;;;;;;;5087048;28;20419;-79
2021/03/15 00:59:18;;;;;;;0.90;0.60;;;;;;;;;;5087357;28;20381;-80
2021/03/15 01:01:44;;;;;;;0.70;0.50;;;;;;;;;;5069495;28;20436;-79
2021/03/15 01:04:11;;;;;;;1.00;0.77;;;;;;;;;;5082469;28;20517;-80
2021/03/15 01:06:37;;;;;;;0.70;0.50;;;;;;;;;;5064394;28;21189;-79
2021/03/15 01:09:03;;;;;;;0.80;0.50;;;;;;;;;;5064953;28;20426;-79
2021/03/15 01:11:29;;;;;;;0.70;0.50;;;;;;;;;;5082087;28;20388;-79
2021/03/15 01:13:55;;;;;;;1.40;1.30;;;;;;;;;;5092177;28;20472;-80
2021/03/15 01:16:21;;;;;;;0.70;0.50;;;;;;;;;;5095735;28;20413;-82
2021/03/15 01:18:47;;;;;;;0.70;0.40;;;;;;;;;;5088987;28;20387;-82
2021/03/15 01:21:14;;;;;;;0.70;0.50;;;;;;;;;;5087405;28;20729;-81
2021/03/15 01:23:40;;;;;;;0.70;0.40;;;;;;;;;;5069378;28;20435;-81
2021/03/15 01:26:06;;;;;;;0.70;0.50;;;;;;;;;;5088108;28;20400;-81
2021/03/15 01:28:32;;;;;;;0.70;0.40;;;;;;;;;;5087740;28;20376;-81
2021/03/15 01:30:59;;;;;;;0.70;0.50;;;;;;;;;;5068661;28;20408;-81
2021/03/15 01:33:25;;;;;;;2.93;0.90;;;;;;;;;;5086787;28;20410;-81
2021/03/15 01:35:51;;;;;;;0.93;0.70;;;;;;;;;;5069265;28;20463;-81
2021/03/15 01:38:17;;;;;;;0.70;0.50;;;;;;;;;;5086903;28;20415;-80
2021/03/15 01:40:43;;;;;;;0.70;0.50;;;;;;;;;;5088235;28;20460;-82
2021/03/15 01:43:10;;;;;;;0.70;0.50;;;;;;;;;;5066430;28;20397;-79
2021/03/15 01:45:36;;;;;;;0.70;0.50;;;;;;;;;;5086917;28;20703;-79
2021/03/15 01:48:03;;;;;;;0.70;0.40;;;;;;;;;;5069945;28;20387;-79
2021/03/15 01:50:29;;;;;;;0.70;0.40;;;;;;;;;;5086862;28;20395;-80
2021/03/15 01:52:56;;;;;;;0.70;0.43;;;;;;;;;;5070222;28;20425;-81
2021/03/15 01:55:23;;;;;;;0.70;0.50;;;;;;;;;;5083721;28;20401;-84
2021/03/15 01:57:49;;;;;;;0.70;0.53;;;;;;;;;;5066102;28;20420;-83
2021/03/15 02:00:16;;;;;;;0.80;0.70;;;;;;;;;;5084527;28;20383;-83
2021/03/15 02:03:00;;;;;;;0.70;0.50;;;;;;;;;;5086545;28;20398;-83
2021/03/15 02:05:27;;;;;;;1.13;1.00;;;;;;;;;;5069190;28;20465;-82
2021/03/15 02:07:54;;;;;;;0.70;0.60;;;;;;;;;;5069229;28;20404;-82
2021/03/15 02:10:20;;;;;;;0.93;0.70;;;;;;;;;;5068743;28;20403;-83
2021/03/15 02:12:49;;;;;;;2.33;2.20;;;;;;;;;;5069363;28;20383;-82
2021/03/15 02:15:18;;;;;;;4.00;2.83;;;;;;;;;;5088258;28;20446;-82
2021/03/15 02:17:56;;;;;;;2.93;0.80;;;;;;;;;;5088599;28;20413;-83
2021/03/15 02:20:38;;;;;;;0.70;0.50;;;;;;;;;;5095580;28;20372;-84
2021/03/15 02:23:11;;;;;;;0.70;0.50;;;;;;;;;;5080231;28;20375;-83
2021/03/15 02:25:46;;;;;;;0.70;0.50;;;;;;;;;;5079039;28;20421;-79
2021/03/15 02:28:15;;;;;;;0.70;0.40;;;;;;;;;;5076934;28;20432;-77
2021/03/15 02:30:44;;;;;;;0.70;0.50;;;;;;;;;;5064878;28;20421;-78
2021/03/15 02:33:25;;;;;;;0.70;0.50;;;;;;;;;;5078044;28;20412;-78
2021/03/15 02:35:52;;;;;;;0.80;0.50;;;;;;;;;;5058640;28;20431;-79
2021/03/15 02:38:20;;;;;;;0.70;0.60;;;;;;;;;;5076329;28;20745;-78
2021/03/15 02:40:47;;;;;;;0.80;0.70;;;;;;;;;;5076944;28;20409;-78
2021/03/15 02:43:19;;;;;;;0.70;0.60;;;;;;;;;;5075656;28;20398;-78
2021/03/15 02:45:46;;;;;;;0.70;0.50;;;;;;;;;;5057907;28;20425;-78
2021/03/15 02:48:13;;;;;;;0.70;0.60;;;;;;;;;;5075960;28;20783;-78
2021/03/15 02:50:40;;;;;;;1.27;0.67;;;;;;;;;;5064937;28;20426;-79
2021/03/15 02:53:09;;;;;;;0.70;0.50;;;;;;;;;;5068017;28;20402;-79
2021/03/15 02:55:36;;;;;;;0.70;0.50;;;;;;;;;;5067356;28;20533;-79
2021/03/15 02:58:03;;;;;;;0.73;0.47;;;;;;;;;;5073346;28;20480;-80
2021/03/15 03:00:30;;;;;;;0.70;0.53;;;;;;;;;;5096167;28;20428;-79
2021/03/15 03:02:57;;;;;;;0.70;0.50;;;;;;;;;;5096455;28;20413;-79
2021/03/15 03:05:24;;;;;;;0.70;0.50;;;;;;;;;;5071260;28;20470;-85
2021/03/15 03:07:51;;;;;;;2.40;2.20;;;;;;;;;;5078009;28;20468;-82
2021/03/15 03:10:19;;;;;;;4.60;1.97;;;;;;;;;;5088644;28;20412;-82
2021/03/15 03:12:45;;;;;;;0.70;0.40;;;;;;;;;;5097682;28;20392;-82
2021/03/15 03:15:13;;;;;;;0.70;0.50;;;;;;;;;;5080103;28;20433;-82
2021/03/15 03:17:39;;;;;;;1.20;1.10;;;;;;;;;;5076572;28;20417;-82
2021/03/15 03:20:11;;;;;;;1.70;1.60;;;;;;;;;;5074542;28;20465;-82
2021/03/15 03:22:39;;;;;;;1.10;1.00;;;;;;;;;;5091735;28;20427;-83
2021/03/15 03:25:06;;;;;;;0.80;0.77;;;;;;;;;;5092730;28;20449;-84
2021/03/15 03:27:33;;;;;;;0.70;0.50;;;;;;;;;;5070893;28;20464;-83
2021/03/15 03:30:00;;;;;;;0.70;0.60;;;;;;;;;;5070433;28;20432;-82
2021/03/15 03:32:26;;;;;;;0.70;0.50;;;;;;;;;;5086317;28;20412;-82
2021/03/15 03:34:52;;;;;;;0.70;0.60;;;;;;;;;;5087220;28;20545;-83
2021/03/15 03:37:18;;;;;;;1.53;0.90;;;;;;;;;;5088922;28;20417;-83
2021/03/15 03:39:44;;;;;;;1.20;1.10;;;;;;;;;;5088994;28;20457;-83
2021/03/15 03:42:10;;;;;;;1.23;0.60;;;;;;;;;;5062875;28;20430;-85
2021/03/15 03:44:36;;;;;;;1.03;0.50;;;;;;;;;;5066474;28;20478;-86
2021/03/15 03:47:02;;;;;;;0.70;0.60;;;;;;;;;;5087460;28;20421;-79
2021/03/15 03:49:28;;;;;;;0.90;0.63;;;;;;;;;;5083331;28;20406;-83
2021/03/15 03:52:01;;;;;;;1.17;1.07;;;;;;;;;;5089778;28;20401;-80
2021/03/15 03:54:30;;;;;;;1.47;1.37;;;;;;;;;;5092633;28;20430;-79
2021/03/15 03:57:05;;;;;;;2.80;0.80;;;;;;;;;;5098154;28;20419;-80
2021/03/15 03:59:33;;;;;;;0.70;0.40;;;;;;;;;;5081443;28;20420;-79
2021/03/15 04:02:01;;;;;;;12.37;1.97;;;;;;;;;;5101619;28;20411;-80
2021/03/15 04:04:28;;;;;;;0.70;0.50;;;;;;;;;;5084311;28;20478;-82
2021/03/15 04:06:54;;;;;;;0.80;0.63;;;;;;;;;;5101261;28;20442;-80
2021/03/15 04:09:25;;;;;;;0.70;0.50;;;;;;;;;;5083332;28;20460;-83
2021/03/15 04:11:53;;;;;;;0.70;0.50;;;;;;;;;;5095150;28;20409;-79
2021/03/15 04:14:34;;;;;;;1.97;1.00;;;;;;;;;;5091070;28;20401;-85
2021/03/15 04:17:01;;;;;;;1.27;0.80;;;;;;;;;;5093296;28;20435;-82
2021/03/15 04:19:40;;;;;;;0.80;0.73;;;;;;;;;;5086311;28;20404;-84
2021/03/15 04:22:07;;;;;;;0.80;0.60;;;;;;;;;;5072688;28;20417;-81
2021/03/15 04:24:36;;;;;;;0.70;0.47;;;;;;;;;;5048651;28;20450;-82
2021/03/15 04:27:03;;;;;;;0.80;0.50;;;;;;;;;;5071650;28;20448;-83
2021/03/15 04:29:30;;;;;;;0.70;0.50;;;;;;;;;;5090291;28;20398;-85
2021/03/15 04:31:56;;;;;;;1.47;1.37;;;;;;;;;;5085580;28;20481;-81
2021/03/15 04:34:22;;;;;;;0.90;0.80;;;;;;;;;;5089094;28;20452;-80
2021/03/15 04:36:49;;;;;;;0.97;0.80;;;;;;;;;;5082288;28;20432;-79
2021/03/15 04:39:15;;;;;;;0.70;0.50;;;;;;;;;;5088301;28;20401;-83
2021/03/15 04:41:42;;;;;;;0.70;0.50;;;;;;;;;;5092886;28;20417;-86
2021/03/15 04:44:08;;;;;;;0.70;0.50;;;;;;;;;;5092076;28;20477;-87
2021/03/15 04:46:35;;;;;;;0.70;0.43;;;;;;;;;;5067350;28;20434;-82
2021/03/15 04:49:07;;;;;;;2.07;0.87;;;;;;;;;;5061743;28;20935;-83
2021/03/15 04:51:35;;;;;;;0.70;0.50;;;;;;;;;;5079758;28;20386;-84
2021/03/15 04:54:02;;;;;;;0.70;0.47;;;;;;;;;;5087385;28;20417;-81
2021/03/15 04:56:28;;;;;;;1.17;0.50;;;;;;;;;;5069267;28;20890;-81
2021/03/15 04:58:55;;;;;;;0.70;0.40;;;;;;;;;;5060642;28;20421;-81
2021/03/15 05:01:22;;;;;;;0.90;0.60;;;;;;;;;;5078697;28;20438;-85
2021/03/15 05:03:52;;;;;;;0.80;0.70;;;;;;;;;;5059770;28;20449;-77
2021/03/15 05:06:21;;;;;;;1.13;0.60;;;;;;;;;;5077290;28;20480;-77
2021/03/15 05:08:49;;;;;;;0.70;0.60;;;;;;;;;;5073582;28;20428;-76
2021/03/15 05:11:16;;;;;;;0.93;0.83;;;;;;;;;;5072419;28;20403;-76
2021/03/15 05:13:43;;;;;;;0.70;0.50;;;;;;;;;;5072934;28;20413;-76
2021/03/15 05:16:12;;;;;;;0.70;0.40;;;;;;;;;;5060399;28;20437;-88
2021/03/15 05:18:41;;;;;;;1.63;1.03;;;;;;;;;;5059999;28;20457;-79
2021/03/15 05:21:08;;;;;;;0.70;0.50;;;;;;;;;;5059599;28;20750;-80
2021/03/15 05:23:34;;;;;;;0.70;0.60;;;;;;;;;;5072386;28;20434;-82
2021/03/15 05:26:01;;;;;;;0.93;0.70;;;;;;;;;;5093044;28;20444;-81
2021/03/15 05:28:27;;;;;;;0.80;0.70;;;;;;;;;;5087148;28;20384;-81
2021/03/15 05:30:57;;;;;;;0.70;0.50;;;;;;;;;;5068191;28;20412;-81
2021/03/15 05:33:23;;;;;;;1.03;0.60;;;;;;;;;;5069786;28;20492;-81
2021/03/15 05:35:51;;;;;;;1.07;0.97;;;;;;;;;;5071181;28;20443;-82
2021/03/15 05:38:17;;;;;;;1.10;0.67;;;;;;;;;;5084754;28;20375;-81
2021/03/15 05:40:44;;;;;;;2.50;1.43;;;;;;;;;;5072119;28;20997;-81
2021/03/15 05:43:16;;;;;;;1.10;0.57;;;;;;;;;;5067049;28;20451;-80
2021/03/15 05:46:01;;;;;;;0.70;0.60;;;;;;;;;;5069342;28;20419;-80
2021/03/15 05:48:41;;;;;;;1.73;0.80;;;;;;;;;;5086236;28;20421;-81
2021/03/15 05:51:10;;;;;;;1.40;0.80;;;;;;;;;;5080089;28;20951;-81
2021/03/15 05:53:50;;;;;;;0.70;0.40;;;;;;;;;;5070908;28;20421;-81
2021/03/15 05:56:25;;;;;;;0.70;0.40;;;;;;;;;;5082168;28;20423;-80
2021/03/15 05:58:54;;;;;;;1.10;0.70;;;;;;;;;;5058588;28;20542;-80
2021/03/15 06:01:35;;;;;;;0.80;0.50;;;;;;;;;;5058478;28;20415;-81
2021/03/15 06:04:13;;;;;;;0.73;0.63;;;;;;;;;;5076582;28;20453;-80
2021/03/15 06:06:39;;;;;;;0.70;0.40;;;;;;;;;;5078440;28;20455;-80
2021/03/15 06:09:08;;;;;;;0.70;0.50;;;;;;;;;;5078177;28;20794;-80
2021/03/15 06:11:46;;;;;;;0.70;0.50;;;;;;;;;;5079943;28;20403;-81
2021/03/15 06:14:13;;;;;;;1.00;0.70;;;;;;;;;;5061154;28;20985;-84
2021/03/15 06:16:40;;;;;;;1.50;1.40;;;;;;;;;;5062757;28;20491;-82
2021/03/15 06:19:06;;;;;;;0.70;0.50;;;;;;;;;;5056594;28;20425;-82
2021/03/15 06:21:32;;;;;;;0.73;0.57;;;;;;;;;;5077922;28;20402;-82
2021/03/15 06:23:59;;;;;;;0.70;0.40;;;;;;;;;;5058867;28;20476;-82
2021/03/15 06:26:27;;;;;;;1.00;0.80;;;;;;;;;;5060341;28;21192;-82
2021/03/15 06:28:55;;;;;;;0.70;0.40;;;;;;;;;;5078012;28;20376;-82
2021/03/15 06:31:21;;;;;;;0.70;0.50;;;;;;;;;;5060023;28;20496;-82
2021/03/15 06:33:47;;;;;;;0.80;0.60;;;;;;;;;;5062066;28;20429;-82
2021/03/15 06:36:14;;;;;;;1.57;1.13;;;;;;;;;;5078118;28;20508;-82
2021/03/15 06:38:41;;;;;;;0.70;0.50;;;;;;;;;;5078279;28;20400;-82
2021/03/15 06:41:09;;;;;;;0.70;0.40;;;;;;;;;;5061150;28;20375;-82
2021/03/15 06:43:35;;;;;;;2.63;2.40;;;;;;;;;;5061064;28;20456;-83
2021/03/15 06:46:01;;;;;;;0.90;0.67;;;;;;;;;;5061779;28;20417;-84
2021/03/15 06:48:27;;;;;;;0.70;0.50;;;;;;;;;;5079003;28;20744;-85
2021/03/15 06:50:55;;;;;;;0.80;0.77;;;;;;;;;;5062266;28;20461;-84
2021/03/15 06:53:21;;;;;;;0.70;0.60;;;;;;;;;;5062541;28;20414;-85
2021/03/15 06:55:48;;;;;;;0.90;0.50;;;;;;;;;;5063398;28;20499;-85
2021/03/15 06:58:20;;;;;;;0.70;0.47;;;;;;;;;;5082349;28;20406;-84
2021/03/15 07:00:47;;;;;;;0.70;0.50;;;;;;;;;;5061398;28;20452;-84
2021/03/15 07:03:23;;;;;;;0.70;0.50;;;;;;;;;;5059864;28;20805;-83
2021/03/15 07:05:56;;;;;;;1.77;0.53;;;;;;;;;;5060030;28;20486;-84
2021/03/15 07:08:25;;;;;;;0.70;0.50;;;;;;;;;;5077684;28;20450;-83
2021/03/15 07:10:51;;;;;;;1.00;0.90;;;;;;;;;;5059091;28;20434;-83
2021/03/15 07:13:19;;;;;;;0.90;0.63;;;;;;;;;;5060322;28;20386;-84
2021/03/15 07:15:46;;;;;;;0.70;0.50;;;;;;;;;;5059790;28;20514;-84
2021/03/15 07:18:20;;;;;;;0.90;0.60;;;;;;;;;;5074549;28;20409;-88
2021/03/15 07:20:50;;;;;;;0.70;0.50;;;;;;;;;;5088458;28;20396;-82
2021/03/15 07:23:17;;;;;;;0.70;0.40;;;;;;;;;;5103693;28;20911;-86
2021/03/15 07:25:43;;;;;;;13.43;1.27;;;;;;;;;;5076231;28;20430;-81
2021/03/15 07:28:09;;;;;;;0.80;0.60;;;;;;;;;;5064926;28;20369;-81
2021/03/15 07:30:43;;;;;;;0.80;0.70;;;;;;;;;;5062941;28;20836;-85
2021/03/15 07:33:12;;;;;;;0.80;0.70;;;;;;;;;;5096103;28;20360;-86
2021/03/15 07:35:39;;;;;;;0.70;0.47;;;;;;;;;;5083048;28;20425;-85
2021/03/15 07:38:05;;;;;;;0.70;0.60;;;;;;;;;;5084200;28;20400;-87
2021/03/15 07:40:36;;;;;;;2.30;2.20;;;;;;;;;;5100256;28;20400;-83
2021/03/15 07:43:03;;;;;;;1.00;0.63;;;;;;;;;;5093389;28;20428;-78
2021/03/15 07:45:34;;;;;;;4.43;1.20;;;;;;;;;;5080433;28;20453;-80
2021/03/15 07:48:06;;;;;;;1.77;0.80;;;;;;;;;;5069891;28;20421;-77
2021/03/15 07:50:32;;;;;;;1.57;1.07;;;;;;;;;;5089924;28;20437;-77
2021/03/15 07:52:58;;;;;;;0.70;0.40;;;;;;;;;;5066694;28;20409;-78
2021/03/15 07:55:37;;;;;;;0.70;0.60;;;;;;;;;;5078788;28;20425;-79
2021/03/15 07:58:19;;;;;;;0.80;0.73;;;;;;;;;;5059391;28;20421;-77
2021/03/15 08:00:46;;;;;;;0.83;0.83;;;;;;;;;;5066926;28;20463;-79
2021/03/15 08:03:12;;;;;;;0.70;0.50;;;;;;;;;;5086578;28;20425;-78
2021/03/15 08:05:38;;;;;;;14.87;1.27;;;;;;;;;;5088055;28;20941;-78
2021/03/15 08:08:04;;;;;;;0.70;0.50;;;;;;;;;;5088330;28;20438;-78
2021/03/15 08:10:30;;;;;;;0.70;0.60;;;;;;;;;;5073565;28;20417;-79
2021/03/15 08:12:57;;;;;;;0.80;0.53;;;;;;;;;;5077583;28;20475;-80
2021/03/15 08:15:23;;;;;;;2.50;1.27;;;;;;;;;;5078838;28;20417;-80
2021/03/15 08:17:50;;;;;;;0.80;0.50;;;;;;;;;;5062452;28;20419;-79
2021/03/15 08:20:16;;;;;;;0.70;0.50;;;;;;;;;;5080246;28;20406;-79
2021/03/15 08:22:43;;;;;;;0.80;0.67;;;;;;;;;;5079865;28;20540;-79
2021/03/15 08:25:09;;;;;;;0.70;0.43;;;;;;;;;;5080242;28;20450;-80
2021/03/15 08:27:49;;;;;;;0.80;0.60;;;;;;;;;;5079273;28;20454;-80
2021/03/15 08:30:19;;;;;;;0.70;0.60;;;;;;;;;;5063522;28;20403;-78
2021/03/15 08:32:45;;;;;;;0.70;0.60;;;;;;;;;;5077582;28;20887;-78
2021/03/15 08:35:14;;;;;;;0.70;0.60;;;;;;;;;;5058765;28;20449;-78
2021/03/15 08:37:58;;;;;;;2.00;1.07;;;;;;;;;;5055510;28;20426;-74
2021/03/15 08:40:42;;;;;;;0.70;0.50;;;;;;;;;;5055612;28;20398;-74
2021/03/15 08:43:25;;;;;;;0.70;0.57;;;;;;;;;;5073606;28;20400;-74
2021/03/15 08:45:51;;;;;;;0.80;0.50;;;;;;;;;;5054752;28;21064;-75
2021/03/15 08:48:18;;;;;;;0.90;0.63;;;;;;;;;;5067811;28;20371;-75
2021/03/15 08:50:48;;;;;;;1.13;0.70;;;;;;;;;;5073215;28;20389;-75
2021/03/15 08:53:35;;;;;;;0.70;0.50;;;;;;;;;;5070060;28;20744;-75
2021/03/15 08:56:01;;;;;;;1.00;0.60;;;;;;;;;;5076331;28;20419;-75
2021/03/15 08:58:37;;;;;;;1.43;1.33;;;;;;;;;;5063547;28;20475;-75
2021/03/15 09:01:08;;;;;;;0.70;0.50;;;;;;;;;;5060119;28;20413;-75
2021/03/15 09:03:46;;;;;;;0.70;0.50;;;;;;;;;;5083037;28;20426;-76
2021/03/15 09:06:12;;;;;;;0.80;0.80;;;;;;;;;;5093764;28;20938;-74
2021/03/15 09:08:56;;;;;;;0.73;0.50;;;;;;;;;;5090103;28;20402;-74
2021/03/15 09:11:36;;;;;;;0.70;0.50;;;;;;;;;;5064800;28;20399;-75
2021/03/15 09:14:15;;;;;;;0.70;0.43;;;;;;;;;;5081481;28;20455;-75
2021/03/15 09:16:48;;;;;;;0.70;0.40;;;;;;;;;;5075171;28;20920;-74
2021/03/15 09:19:22;;;;;;;0.70;0.50;;;;;;;;;;5062767;28;20414;-74
2021/03/15 09:21:54;;;;;;;0.70;0.40;;;;;;;;;;5086437;28;20923;-74
2021/03/15 09:24:39;;;;;;;1.10;1.00;;;;;;;;;;5080786;28;20442;-74
2021/03/15 09:27:09;;;;;;;1.73;0.50;;;;;;;;;;5076067;28;20480;-75
2021/03/15 09:29:36;;;;;;;0.80;0.70;;;;;;;;;;5082260;28;20733;-75
2021/03/15 09:32:12;;;;;;;0.70;0.40;;;;;;;;;;5080581;28;20424;-73
2021/03/15 09:34:38;;;;;;;0.70;0.50;;;;;;;;;;5050080;28;20506;-74
2021/03/15 09:37:05;;;;;;;2.30;0.90;;;;;;;;;;5072655;28;20429;-75
2021/03/15 09:39:31;;;;;;;4.40;0.77;;;;;;;;;;5066294;28;20410;-75
2021/03/15 09:41:58;;;;;;;0.70;0.50;;;;;;;;;;5068643;28;20413;-75
2021/03/15 09:44:29;;;;;;;0.70;0.50;;;;;;;;;;5072449;28;20458;-75
2021/03/15 09:46:55;;;;;;;0.70;0.50;;;;;;;;;;5059475;28;20404;-74
2021/03/15 09:49:33;;;;;;;0.70;0.50;;;;;;;;;;5042728;28;20377;-74
2021/03/15 09:52:29;;;;;;;0.70;0.40;;;;;;;;;;5066476;28;20395;-75
2021/03/15 09:54:56;;;;;;;1.63;0.80;;;;;;;;;;5049300;28;20420;-77
2021/03/15 09:57:22;;;;;;;0.70;0.50;;;;;;;;;;5050143;28;20800;-77
2021/03/15 09:59:51;;;;;;;0.70;0.57;;;;;;;;;;5054827;28;20405;-77
2021/03/15 10:02:27;;;;;;;0.70;0.50;;;;;;;;;;5067303;28;20427;-77
2021/03/15 10:04:53;;;;;;;2.03;0.90;;;;;;;;;;5075439;28;20805;-76
2021/03/15 10:07:19;;;;;;;0.70;0.40;;;;;;;;;;5061260;28;20422;-77
2021/03/15 10:09:45;;;;;;;0.70;0.57;;;;;;;;;;5078432;28;20815;-77
2021/03/15 10:12:19;;;;;;;0.70;0.40;;;;;;;;;;5062062;28;20391;-77
2021/03/15 10:14:45;;;;;;;0.70;0.50;;;;;;;;;;5058682;28;20388;-77
2021/03/15 10:17:19;;;;;;;0.70;0.50;;;;;;;;;;5071802;28;21018;-76
2021/03/15 10:19:45;;;;;;;0.80;0.60;;;;;;;;;;5072011;28;20377;-76
2021/03/15 10:22:16;;;;;;;1.00;0.70;;;;;;;;;;5071721;28;20382;-77
2021/03/15 10:24:42;;;;;;;0.70;0.40;;;;;;;;;;5054229;28;20510;-76
2021/03/15 10:27:09;;;;;;;0.70;0.40;;;;;;;;;;5050829;28;20437;-76
2021/03/15 10:29:38;;;;;;;0.70;0.50;;;;;;;;;;5053838;28;20459;-76
2021/03/15 10:32:06;;;;;;;0.70;0.43;;;;;;;;;;5071675;28;20741;-76
2021/03/15 10:34:32;;;;;;;0.80;0.50;;;;;;;;;;5066346;28;20419;-76
2021/03/15 10:36:58;;;;;;;0.70;0.50;;;;;;;;;;5041105;28;20418;-76
2021/03/15 10:39:25;;;;;;;0.70;0.50;;;;;;;;;;5071188;28;20415;-76
2021/03/15 10:41:51;;;;;;;0.70;0.40;;;;;;;;;;5059365;28;20849;-76
2021/03/15 10:44:25;;;;;;;0.80;0.60;;;;;;;;;;5054862;28;20981;-75
2021/03/15 10:46:53;;;;;;;1.13;1.03;;;;;;;;;;5086781;22;20985;-71
2021/03/15 10:49:20;;;;;;;0.80;0.67;;;;;;;;;;5083948;28;20746;-72
2021/03/15 10:51:46;;;;;;;0.70;0.50;;;;;;;;;;5071634;28;20410;-71
2021/03/15 10:54:26;;;;;;;1.07;0.97;;;;;;;;;;5064730;28;20370;-71
2021/03/15 10:57:10;;;;;;;13.17;10.23;;;;;;;;;;5050276;28;20417;-71
2021/03/15 10:59:37;;;;;;;3.73;1.33;;;;;;;;;;5065979;28;20738;-72
2021/03/15 11:02:03;;;;;;;0.77;0.63;;;;;;;;;;5047104;28;20395;-70
2021/03/15 11:04:36;;;;;;;0.70;0.50;;;;;;;;;;5049433;28;20450;-72
2021/03/15 11:07:18;;;;;;;0.70;0.57;;;;;;;;;;5057623;28;20393;-70
2021/03/15 11:09:54;;;;;;;0.90;0.70;;;;;;;;;;5065814;28;20377;-71
2021/03/15 11:12:30;;;;;;;0.80;0.70;;;;;;;;;;5060040;28;20470;-71
2021/03/15 11:15:05;;;;;;;0.70;0.50;;;;;;;;;;5063803;28;20406;-69
2021/03/15 11:17:31;;;;;;;0.70;0.50;;;;;;;;;;5061300;28;20434;-72
2021/03/15 11:19:57;;;;;;;0.70;0.50;;;;;;;;;;5041391;28;20421;-72
2021/03/15 11:22:23;;;;;;;0.70;0.50;;;;;;;;;;5057726;28;20948;-73
2021/03/15 11:24:49;;;;;;;0.70;0.40;;;;;;;;;;5039542;28;20454;-73
2021/03/15 11:27:14;;;;;;;2.60;2.40;;;;;;;;;;5061588;28;20389;-73
2021/03/15 11:29:42;;;;;;;0.70;0.60;;;;;;;;;;5040873;28;20389;-73
2021/03/15 11:32:13;;;;;;;2.27;1.53;;;;;;;;;;5062584;28;20452;-71
2021/03/15 11:34:49;;;;;;;0.90;0.60;;;;;;;;;;5060879;28;20455;-71
2021/03/15 11:37:15;;;;;;;0.70;0.40;;;;;;;;;;5061480;28;20472;-72
2021/03/15 11:39:41;;;;;;;0.80;0.67;;;;;;;;;;5062481;28;20467;-71
2021/03/15 11:42:21;;;;;;;0.70;0.40;;;;;;;;;;5042757;28;20430;-73
2021/03/15 11:44:47;;;;;;;0.70;0.43;;;;;;;;;;5068670;28;20485;-74
2021/03/15 11:47:13;;;;;;;0.70;0.40;;;;;;;;;;5052529;28;20400;-73
2021/03/15 11:49:39;;;;;;;0.70;0.47;;;;;;;;;;5061541;28;20450;-72
2021/03/15 11:52:05;;;;;;;0.70;0.50;;;;;;;;;;5063193;28;20788;-72
2021/03/15 11:54:31;;;;;;;0.70;0.50;;;;;;;;;;5066822;28;20460;-73
2021/03/15 11:56:57;;;;;;;0.70;0.50;;;;;;;;;;5063619;28;20990;-71
2021/03/15 11:59:23;;;;;;;0.70;0.50;;;;;;;;;;5062992;28;20881;-72
2021/03/15 12:01:49;;;;;;;0.70;0.40;;;;;;;;;;5056125;28;20447;-73
2021/03/15 12:04:15;;;;;;;0.70;0.50;;;;;;;;;;5058729;28;20448;-73
2021/03/15 12:06:41;;;;;;;0.70;0.40;;;;;;;;;;5050783;28;20383;-72
2021/03/15 12:09:07;;;;;;;0.70;0.50;;;;;;;;;;5060216;28;20805;-73
2021/03/15 12:11:33;;;;;;;0.83;0.63;;;;;;;;;;5065073;28;20455;-74
2021/03/15 12:13:59;;;;;;;0.80;0.63;;;;;;;;;;5060957;28;20867;-74
2021/03/15 12:16:25;;;;;;;0.70;0.40;;;;;;;;;;5058797;28;20885;-72
2021/03/15 12:18:54;;;;;;;0.70;0.40;;;;;;;;;;5059163;28;20421;-72
2021/03/15 12:21:20;;;;;;;0.70;0.40;;;;;;;;;;5061244;28;20507;-72
2021/03/15 12:23:46;;;;;;;0.70;0.50;;;;;;;;;;5070664;28;20451;-72
2021/03/15 12:26:12;;;;;;;0.70;0.43;;;;;;;;;;5064428;28;20873;-73
2021/03/15 12:28:38;;;;;;;1.03;0.90;;;;;;;;;;5063474;28;20442;-72
2021/03/15 12:31:04;;;;;;;0.70;0.40;;;;;;;;;;5063514;28;20845;-72
2021/03/15 12:33:30;;;;;;;0.70;0.50;;;;;;;;;;5045727;28;20438;-73
2021/03/15 12:35:55;;;;;;;0.80;0.63;;;;;;;;;;5066282;28;20403;-72
2021/03/15 12:38:21;;;;;;;0.70;0.40;;;;;;;;;;5064722;28;21323;-71
2021/03/15 12:40:50;;;;;;;0.70;0.40;;;;;;;;;;5060994;28;20894;-72
2021/03/15 12:43:16;;;;;;;0.70;0.50;;;;;;;;;;5068043;28;20430;-71
2021/03/15 12:45:42;;;;;;;0.70;0.40;;;;;;;;;;5070236;28;20491;-72
2021/03/15 12:48:08;;;;;;;1.47;1.37;;;;;;;;;;5063021;28;20373;-72
2021/03/15 12:50:34;;;;;;;0.70;0.50;;;;;;;;;;5065918;28;20401;-74
2021/03/15 12:53:00;;;;;;;0.70;0.50;;;;;;;;;;5071425;28;20472;-73
2021/03/15 12:55:26;;;;;;;0.70;0.50;;;;;;;;;;5063300;28;20373;-72
2021/03/15 12:57:52;;;;;;;0.70;0.50;;;;;;;;;;5067601;28;20415;-73
2021/03/15 13:00:18;;;;;;;0.70;0.50;;;;;;;;;;5047264;28;21100;-71
2021/03/15 13:02:44;;;;;;;0.70;0.50;;;;;;;;;;5068026;28;20400;-72
2021/03/15 13:05:10;;;;;;;0.70;0.47;;;;;;;;;;5071926;28;20787;-72
2021/03/15 13:07:36;;;;;;;0.70;0.50;;;;;;;;;;5062356;28;20462;-71
2021/03/15 13:10:03;;;;;;;0.70;0.40;;;;;;;;;;5064038;28;20789;-71
2021/03/15 13:12:29;;;;;;;0.70;0.50;;;;;;;;;;5070572;28;20424;-72
2021/03/15 13:14:57;;;;;;;0.70;0.50;;;;;;;;;;5064106;28;20496;-73
2021/03/15 13:17:23;;;;;;;0.70;0.50;;;;;;;;;;5061415;28;20718;-72
2021/03/15 13:19:49;;;;;;;0.70;0.50;;;;;;;;;;5070475;28;20394;-73
2021/03/15 13:22:15;;;;;;;1.17;1.07;;;;;;;;;;5064578;28;20423;-73
2021/03/15 13:24:41;;;;;;;0.70;0.53;;;;;;;;;;5047958;28;20424;-72
2021/03/15 13:27:07;;;;;;;0.70;0.50;;;;;;;;;;5067285;28;20758;-71
2021/03/15 13:29:33;;;;;;;1.57;0.80;;;;;;;;;;5068921;28;20405;-70
2021/03/15 13:31:59;;;;;;;0.70;0.50;;;;;;;;;;5043221;28;20440;-73
2021/03/15 13:34:25;;;;;;;0.80;0.57;;;;;;;;;;5066139;28;20919;-73
2021/03/15 13:36:51;;;;;;;0.90;0.80;;;;;;;;;;5065223;28;20381;-73
2021/03/15 13:39:17;;;;;;;0.70;0.40;;;;;;;;;;5053755;28;20412;-73
2021/03/15 13:41:43;;;;;;;0.70;0.50;;;;;;;;;;5073409;28;20450;-73
2021/03/15 13:44:09;;;;;;;0.70;0.40;;;;;;;;;;5068313;28;20454;-71
2021/03/15 13:46:35;;;;;;;0.70;0.50;;;;;;;;;;5065971;28;20434;-73
2021/03/15 13:49:01;;;;;;;0.90;0.70;;;;;;;;;;5061944;28;20405;-74
2021/03/15 13:51:28;;;;;;;0.70;0.50;;;;;;;;;;5046001;28;21052;-72
2021/03/15 13:53:55;;;;;;;4.40;1.33;;;;;;;;;;5062556;28;20398;-72
2021/03/15 13:56:21;;;;;;;0.80;0.40;;;;;;;;;;5070110;28;20398;-73
2021/03/15 13:58:47;;;;;;;0.70;0.50;;;;;;;;;;5048030;28;20956;-72
2021/03/15 14:01:13;;;;;;;0.70;0.40;;;;;;;;;;5059705;28;20470;-72
2021/03/15 14:03:39;;;;;;;0.80;0.53;;;;;;;;;;5063333;28;20416;-72
2021/03/15 14:06:05;;;;;;;0.70;0.50;;;;;;;;;;5064854;28;20434;-72
2021/03/15 14:08:31;;;;;;;0.70;0.40;;;;;;;;;;5049578;28;20485;-75
2021/03/15 14:10:57;;;;;;;0.90;0.70;;;;;;;;;;5063346;28;20972;-72
2021/03/15 14:13:23;;;;;;;0.70;0.47;;;;;;;;;;5064775;28;20900;-72
2021/03/15 14:15:49;;;;;;;1.30;0.50;;;;;;;;;;5067016;28;20414;-73
2021/03/15 14:18:15;;;;;;;1.43;1.07;;;;;;;;;;5062637;28;20498;-71
2021/03/15 14:20:41;;;;;;;0.70;0.40;;;;;;;;;;5061717;28;20405;-74
2021/03/15 14:23:07;;;;;;;0.70;0.40;;;;;;;;;;5067923;28;20435;-74
2021/03/15 14:25:33;;;;;;;1.07;0.60;;;;;;;;;;5071222;28;20482;-71
2021/03/15 14:27:59;;;;;;;0.70;0.40;;;;;;;;;;5071903;28;20460;-73
2021/03/15 14:30:25;;;;;;;0.70;0.40;;;;;;;;;;5069205;28;20412;-73
2021/03/15 14:32:51;;;;;;;0.70;0.50;;;;;;;;;;5066677;28;20432;-73
2021/03/15 14:35:17;;;;;;;0.70;0.50;;;;;;;;;;5059975;28;20778;-73
2021/03/15 14:37:45;;;;;;;0.70;0.50;;;;;;;;;;5063048;28;20408;-74
2021/03/15 14:40:11;;;;;;;0.70;0.40;;;;;;;;;;5058428;28;20444;-72
2021/03/15 14:42:37;;;;;;;1.77;0.60;;;;;;;;;;5070294;28;20786;-74
2021/03/15 14:45:04;;;;;;;0.70;0.47;;;;;;;;;;5054941;28;20486;-73
2021/03/15 14:47:30;;;;;;;0.80;0.43;;;;;;;;;;5060662;28;20422;-74
2021/03/15 14:49:56;;;;;;;0.70;0.50;;;;;;;;;;5071715;28;20399;-72